KFWC

Fairfield Municipal Airport

Fairfield, Illinois, USA
METAR KFWC 160035Z AUTO 34006KT 10SM OVC021 07/05 A3002 RMK AO1 T00660046
Observed Flight Rules
Dec-16 @ 00:35 UTC (41 minutes ago) Marginal Visual Flight Rules
Wind Visibility Clouds
340° at 6 knots 10 miles
  • Overcast at 2,100' AGL
Temperatures Readings
Current 7°C / 45°F
Dewpoint 5°C / 41°F
Humidity 87%
Altimeter 30.02" Hg
Pressure 1017 hPa
Elevation 133
METAR KFWC 160035Z AUTO 34006KT 10SM OVC021 07/05 A3002 RMK AO1 T00660046
Observed Flight Rules
Dec-16 @ 00:35 UTC
(41 minutes ago)
MVFR
Wind Visibility
340° at 6 knots 10 miles
Clouds
  • Overcast at 2,100' AGL
Temperature Dewpoint
7°C / 45°F 5°C / 41°F
Humidity Altimeter Pressure
87% 30.02" Hg 1017 hPa